Time;durP1;ratioP1;P1;durP2;ratioP2;P2;SDS_P1;SDS_P2;PMS_P1;PMS_P2;Temp;Humidity;BMP_temperature;BMP_pressure;BME280_temperature;BME280_humidity;BME280_pressure;Samples;Min_cycle;Max_cycle;Signal;HPM_P1;HPM_P2
2022/04/25 00:00:54;;;;;;;19.05;5.88;;;;;;;16.96;55.95;93979.56;4159353;28;20265;-52
2022/04/25 00:02:57;;;;;;;17.70;5.20;;;;;;;16.99;56.10;93975.69;4158406;28;20057;-53
2022/04/25 00:04:59;;;;;;;14.48;5.75;;;;;;;16.91;55.77;93975.97;4158966;28;20046;-54
2022/04/25 00:07:01;;;;;;;24.73;5.20;;;;;;;16.87;55.97;93982.72;4158945;28;20060;-53
2022/04/25 00:09:03;;;;;;;18.40;5.47;;;;;;;16.88;56.03;93982.47;4157856;28;20509;-55
2022/04/25 00:11:04;;;;;;;11.30;4.05;;;;;;;16.88;55.82;93992.25;4159533;28;20521;-54
2022/04/25 00:13:06;;;;;;;12.50;5.50;;;;;;;16.86;55.68;93987.19;4158878;28;20119;-52
2022/04/25 00:15:08;;;;;;;14.40;4.95;;;;;;;16.88;55.58;93992.25;4159262;28;20049;-56
2022/04/25 00:17:10;;;;;;;14.57;4.93;;;;;;;16.88;55.16;93979.03;4159192;28;20112;-50
2022/04/25 00:19:12;;;;;;;13.27;4.55;;;;;;;16.89;55.28;93993.91;4158228;28;20107;-52
2022/04/25 00:21:13;;;;;;;21.50;5.15;;;;;;;16.88;55.25;93989.63;4158291;28;20045;-54
2022/04/25 00:23:15;;;;;;;18.25;5.32;;;;;;;16.86;55.25;93979.25;4157851;28;20111;-54
2022/04/25 00:25:17;;;;;;;18.00;5.00;;;;;;;16.60;56.11;93990.78;4158776;28;20123;-55
2022/04/25 00:27:19;;;;;;;18.63;5.38;;;;;;;16.32;56.72;93991.97;4156973;28;20646;-56
2022/04/25 00:29:27;;;;;;;18.40;4.88;;;;;;;16.30;56.79;93991.38;4152832;28;20057;-53
2022/04/25 00:31:29;;;;;;;15.27;4.93;;;;;;;16.34;56.77;93995.22;4158955;28;20095;-55
2022/04/25 00:33:31;;;;;;;18.50;4.57;;;;;;;16.34;56.52;93992.56;4158471;28;20053;-53
2022/04/25 00:35:33;;;;;;;19.25;7.00;;;;;;;16.36;56.26;93989.72;4159095;28;20122;-53
2022/04/25 00:37:35;;;;;;;19.58;5.43;;;;;;;16.38;56.44;93990.31;4159253;28;20103;-53
2022/04/25 00:39:36;;;;;;;24.25;4.50;;;;;;;16.42;56.18;93985.44;4157824;28;20064;-53
2022/04/25 00:41:39;;;;;;;14.15;4.55;;;;;;;16.46;56.13;93986.63;4159435;28;20053;-55
2022/04/25 00:43:41;;;;;;;20.00;4.70;;;;;;;16.48;56.01;93981.94;4158610;28;20174;-49
2022/04/25 00:45:42;;;;;;;14.02;4.25;;;;;;;16.42;56.11;93980.94;4159123;28;20655;-54
2022/04/25 00:47:45;;;;;;;24.77;5.25;;;;;;;16.47;56.06;93981.09;4158729;28;20280;-55
2022/04/25 00:49:47;;;;;;;14.60;5.03;;;;;;;16.51;55.73;93973.56;4157550;28;20057;-54
2022/04/25 00:51:51;;;;;;;15.25;5.75;;;;;;;16.54;55.84;93981.91;4158962;28;20411;-55
2022/04/25 00:53:53;;;;;;;17.15;4.25;;;;;;;16.55;55.70;93977.41;4157579;28;20045;-55
2022/04/25 00:55:55;;;;;;;23.90;4.43;;;;;;;16.52;56.12;93969.88;4158940;28;20053;-56
2022/04/25 00:57:58;;;;;;;18.02;4.57;;;;;;;16.25;56.72;93975.34;4156769;28;20337;-52
2022/04/25 01:00:00;;;;;;;13.23;5.50;;;;;;;16.24;57.24;93971.09;4154835;28;20653;-53
2022/04/25 01:02:02;;;;;;;16.30;5.22;;;;;;;16.12;57.27;93963.00;4142411;28;20077;-54
2022/04/25 01:04:05;;;;;;;19.40;4.95;;;;;;;16.08;57.58;93958.34;4142174;28;20120;-52
2022/04/25 01:06:07;;;;;;;17.13;5.05;;;;;;;16.14;57.55;93954.88;4142202;28;20058;-52
2022/04/25 01:08:08;;;;;;;16.55;5.28;;;;;;;16.19;57.66;93957.69;4141113;28;20112;-56
2022/04/25 01:10:11;;;;;;;17.08;5.07;;;;;;;16.22;57.65;93952.00;4141209;28;20827;-57
2022/04/25 01:12:13;;;;;;;16.53;5.40;;;;;;;16.27;57.66;93946.88;4142475;28;20107;-56
2022/04/25 01:14:17;;;;;;;25.55;5.63;;;;;;;16.28;57.46;93945.88;4143674;28;20050;-55
2022/04/25 01:16:20;;;;;;;21.00;7.15;;;;;;;16.32;57.82;93940.94;4145711;28;20058;-58
2022/04/25 01:18:22;;;;;;;19.67;5.85;;;;;;;16.29;57.84;93930.81;4148867;28;20068;-52
2022/04/25 01:20:24;;;;;;;15.13;5.63;;;;;;;16.29;57.56;93934.25;4154485;28;20045;-54
2022/04/25 01:22:32;;;;;;;19.08;5.50;;;;;;;16.25;57.75;93938.34;4161894;28;20061;-55
2022/04/25 01:29:15;;;;;;;19.60;5.85;;;;;;;16.07;58.51;93932.97;4157968;28;20049;-53
2022/04/25 01:31:44;;;;;;;17.98;5.53;;;;;;;16.05;58.50;93930.53;4161738;28;20526;-52
2022/04/25 01:33:46;;;;;;;14.38;4.93;;;;;;;16.05;58.53;93919.97;4151771;28;20144;-55
2022/04/25 01:35:48;;;;;;;15.25;5.22;;;;;;;16.03;58.47;93914.09;4161746;28;20049;-55
2022/04/25 01:37:50;;;;;;;15.60;5.55;;;;;;;16.01;58.56;93907.41;4160274;28;20107;-55
2022/04/25 01:39:53;;;;;;;17.73;5.78;;;;;;;15.99;58.96;93904.16;4161669;28;20191;-52
2022/04/25 01:41:55;;;;;;;12.40;5.95;;;;;;;15.99;58.96;93914.72;4161571;28;20065;-52
2022/04/25 01:43:56;;;;;;;13.68;4.72;;;;;;;16.00;58.61;93921.63;4161340;28;20112;-55
2022/04/25 01:45:58;;;;;;;20.38;5.45;;;;;;;16.00;58.32;93913.69;4160454;28;20109;-52
2022/04/25 01:48:00;;;;;;;22.67;5.22;;;;;;;15.97;58.59;93923.66;4160802;28;20057;-53
2022/04/25 01:50:02;;;;;;;16.10;5.20;;;;;;;15.96;58.35;93922.06;4161561;28;20053;-53
2022/04/25 01:52:31;;;;;;;12.88;5.85;;;;;;;15.87;58.65;93927.78;4161389;28;20115;-54
2022/04/25 01:54:32;;;;;;;19.10;5.10;;;;;;;15.52;59.55;93926.25;4154571;28;20053;-54
2022/04/25 01:56:35;;;;;;;13.25;4.90;;;;;;;15.42;59.84;93919.78;4161383;28;20077;-57
2022/04/25 01:58:36;;;;;;;15.18;4.97;;;;;;;15.29;60.15;93924.09;4161585;28;20053;-55
2022/04/25 02:00:38;;;;;;;15.48;5.38;;;;;;;15.32;60.39;93905.19;4161365;28;20107;-57
2022/04/25 02:02:40;;;;;;;15.15;5.82;;;;;;;15.37;60.33;93899.28;4161457;28;20081;-51
2022/04/25 02:04:42;;;;;;;17.10;5.80;;;;;;;15.44;60.18;93900.06;4160854;28;20520;-55
2022/04/25 02:06:44;;;;;;;19.83;6.15;;;;;;;15.50;59.89;93896.59;4161019;28;20061;-55
2022/04/25 02:08:46;;;;;;;17.52;5.43;;;;;;;15.60;59.69;93901.47;4159760;28;20053;-53
2022/04/25 02:11:19;;;;;;;17.02;6.20;;;;;;;15.67;59.33;93894.31;4161189;28;20119;-57
2022/04/25 02:13:09;;;;;;;20.13;7.10;;;;;;;15.71;59.00;93894.72;4160959;28;20505;-54
2022/04/25 02:15:13;;;;;;;18.98;5.15;;;;;;;15.72;59.08;93897.19;4161109;28;20099;-55
2022/04/25 02:17:15;;;;;;;22.23;5.57;;;;;;;15.73;58.97;93903.25;4161058;28;20153;-56
2022/04/25 02:19:17;;;;;;;17.88;5.80;;;;;;;15.70;59.09;93907.13;4160659;28;20119;-55
2022/04/25 02:21:19;;;;;;;16.13;4.97;;;;;;;15.60;59.51;93908.56;4153044;28;20469;-53
2022/04/25 02:23:21;;;;;;;15.18;5.60;;;;;;;15.30;60.16;93909.06;4143385;28;20077;-57
2022/04/25 02:25:22;;;;;;;15.93;5.65;;;;;;;15.14;60.98;93915.59;4148978;28;20187;-52
2022/04/25 02:27:24;;;;;;;17.17;5.53;;;;;;;15.18;61.13;93905.44;4160574;28;20065;-54
2022/04/25 02:29:26;;;;;;;15.30;5.78;;;;;;;15.28;60.86;93900.56;4161605;28;20519;-55
2022/04/25 02:31:28;;;;;;;14.80;6.07;;;;;;;15.21;60.85;93903.22;4161245;28;20065;-54
2022/04/25 02:33:33;;;;;;;20.75;5.53;;;;;;;15.11;60.62;93908.91;4160694;28;20579;-53
2022/04/25 02:35:34;;;;;;;17.38;5.43;;;;;;;15.20;60.65;93906.03;4161073;28;20480;-53
2022/04/25 02:37:36;;;;;;;19.83;5.70;;;;;;;15.28;60.30;93908.47;4160946;28;20077;-55
2022/04/25 02:39:38;;;;;;;17.60;5.03;;;;;;;15.35;60.13;93915.34;4159247;28;20053;-52
2022/04/25 02:41:40;;;;;;;21.75;5.78;;;;;;;15.43;59.78;93914.31;4160752;28;20674;-55
2022/04/25 02:43:45;;;;;;;17.02;4.80;;;;;;;15.49;59.60;93905.56;4160278;28;20125;-55
2022/04/25 02:45:46;;;;;;;17.98;5.85;;;;;;;15.46;59.61;93894.59;4159327;28;20100;-52
2022/04/25 02:47:48;;;;;;;15.48;5.03;;;;;;;15.43;59.90;93890.56;4153827;28;20076;-54
2022/04/25 02:49:50;;;;;;;15.77;5.85;;;;;;;15.44;59.57;93884.25;4144133;28;20050;-52
2022/04/25 02:51:52;;;;;;;20.50;5.90;;;;;;;15.40;60.00;93880.44;4144100;28;20115;-50
2022/04/25 02:53:54;;;;;;;21.70;6.00;;;;;;;15.34;60.22;93870.69;4150765;28;20103;-54
2022/04/25 02:55:56;;;;;;;25.40;6.10;;;;;;;15.35;60.17;93861.75;4160491;28;20125;-55
2022/04/25 02:57:57;;;;;;;18.67;5.93;;;;;;;15.28;60.19;93867.06;4160228;28;20049;-55
2022/04/25 02:59:59;;;;;;;21.73;6.05;;;;;;;15.27;60.43;93854.88;4160226;28;20130;-49
2022/04/25 03:02:01;;;;;;;20.13;6.03;;;;;;;15.28;60.45;93859.13;4160466;28;20591;-50
2022/04/25 03:04:03;;;;;;;21.08;5.30;;;;;;;15.25;60.52;93856.09;4159793;28;20092;-52
2022/04/25 03:06:07;;;;;;;16.92;5.50;;;;;;;15.14;60.77;93862.81;4160438;28;20509;-53
2022/04/25 03:08:10;;;;;;;16.63;5.93;;;;;;;15.11;60.89;93869.34;4158985;28;20057;-51
2022/04/25 03:10:11;;;;;;;18.65;6.50;;;;;;;15.16;60.52;93876.63;4160176;28;20091;-53
2022/04/25 03:12:13;;;;;;;16.58;5.35;;;;;;;15.10;60.53;93869.53;4160197;28;20115;-54
2022/04/25 03:14:15;;;;;;;12.50;4.82;;;;;;;15.06;60.85;93869.16;4159593;28;20053;-55
2022/04/25 03:16:18;;;;;;;26.85;5.85;;;;;;;15.07;60.83;93876.03;4159878;28;20058;-54
2022/04/25 03:18:24;;;;;;;17.73;5.60;;;;;;;15.11;60.80;93877.25;4160070;28;20060;-54
2022/04/25 03:20:26;;;;;;;13.80;5.93;;;;;;;15.15;60.79;93873.19;4159147;28;20254;-54
2022/04/25 03:22:27;;;;;;;16.42;6.03;;;;;;;15.02;61.05;93875.84;4143730;28;20465;-56
2022/04/25 03:24:30;;;;;;;17.45;5.55;;;;;;;15.01;61.16;93881.31;4142319;28;20054;-54
2022/04/25 03:26:33;;;;;;;18.98;5.00;;;;;;;15.00;61.58;93885.81;4143647;28;20050;-56
2022/04/25 03:28:35;;;;;;;22.13;5.07;;;;;;;14.91;61.34;93879.13;4148223;28;20480;-53
2022/04/25 03:30:37;;;;;;;14.15;5.40;;;;;;;14.57;62.27;93886.25;4158346;28;20098;-52
2022/04/25 03:32:44;;;;;;;17.92;6.20;;;;;;;14.59;62.80;93884.22;4160016;28;20592;-55
2022/04/25 03:34:46;;;;;;;21.92;5.43;;;;;;;14.67;62.70;93896.38;4159995;28;20140;-54
2022/04/25 03:36:54;;;;;;;16.48;5.90;;;;;;;14.76;62.10;93895.16;4158993;28;20058;-53
2022/04/25 03:38:56;;;;;;;16.63;6.05;;;;;;;14.77;62.06;93899.41;4158511;28;20053;-52
2022/04/25 03:40:59;;;;;;;17.30;5.40;;;;;;;14.80;61.78;93917.47;4160003;28;20151;-54
2022/04/25 03:43:02;;;;;;;15.73;5.25;;;;;;;14.22;62.98;93911.94;4159632;28;20068;-53
2022/04/25 03:45:11;;;;;;;16.75;5.53;;;;;;;13.83;64.18;93911.66;4158369;28;20041;-54
2022/04/25 03:47:13;;;;;;;10.25;4.82;;;;;;;13.74;64.33;93912.81;4158040;28;20065;-54
2022/04/25 03:49:15;;;;;;;18.63;6.18;;;;;;;13.71;64.59;93913.25;4143196;28;20042;-53
2022/04/25 03:51:16;;;;;;;14.23;4.90;;;;;;;13.72;64.46;93904.31;4143552;28;20057;-53
2022/04/25 03:53:18;;;;;;;23.48;5.68;;;;;;;13.84;64.44;93918.53;4144775;28;20506;-54
2022/04/25 03:57:40;;;;;;;19.48;5.63;;;;;;;14.15;62.92;93914.56;4159411;28;20140;-54
2022/04/25 03:59:42;;;;;;;21.77;6.05;;;;;;;13.97;63.31;93922.22;4159222;28;20080;-53
2022/04/25 04:01:44;;;;;;;17.67;5.80;;;;;;;14.02;63.56;93923.22;4159665;28;20191;-55
2022/04/25 04:03:46;;;;;;;17.10;5.63;;;;;;;13.84;64.07;93909.84;4159031;28;20085;-53
2022/04/25 04:05:50;;;;;;;22.85;6.40;;;;;;;13.50;64.79;93904.44;4159033;28;20055;-51
2022/04/25 04:07:52;;;;;;;17.08;6.05;;;;;;;13.61;64.95;93921.50;4158101;28;20061;-53
2022/04/25 04:09:54;;;;;;;18.30;6.32;;;;;;;13.79;64.06;93931.50;4159203;28;20061;-56
2022/04/25 04:11:56;;;;;;;23.52;6.53;;;;;;;13.97;63.37;93928.28;4159150;28;20057;-55
2022/04/25 04:13:58;;;;;;;16.20;5.43;;;;;;;13.93;63.77;93932.34;4159066;28;20592;-53
2022/04/25 04:15:59;;;;;;;13.43;6.43;;;;;;;13.80;63.95;93927.03;4159267;28;20058;-50
2022/04/25 04:18:04;;;;;;;17.77;6.45;;;;;;;13.94;63.81;93933.97;4158837;28;20466;-56
2022/04/25 04:20:08;;;;;;;19.27;6.40;;;;;;;14.10;63.12;93943.31;4159236;28;20194;-55
2022/04/25 04:22:10;;;;;;;22.67;6.03;;;;;;;14.25;64.35;93930.78;4159177;28;20403;-54
2022/04/25 04:24:12;;;;;;;14.88;5.63;;;;;;;14.14;63.26;93929.56;4157589;28;20045;-57
2022/04/25 04:26:13;;;;;;;22.90;6.40;;;;;;;14.18;63.38;93937.88;4158947;28;20053;-55
2022/04/25 04:28:15;;;;;;;22.45;6.07;;;;;;;14.17;63.21;93932.78;4159060;28;20053;-53
2022/04/25 04:30:20;;;;;;;16.73;5.97;;;;;;;14.26;62.14;93937.69;4158193;28;20131;-57
2022/04/25 04:32:22;;;;;;;15.13;5.47;;;;;;;14.40;62.16;93948.25;4161082;28;20183;-55
2022/04/25 04:34:24;;;;;;;16.10;5.57;;;;;;;14.54;62.44;93934.88;4158672;28;20409;-53
2022/04/25 04:36:26;;;;;;;16.58;5.30;;;;;;;14.71;61.41;93937.13;4159083;28;20041;-54
2022/04/25 04:38:27;;;;;;;23.52;6.38;;;;;;;14.86;60.93;93935.13;4157904;28;20116;-56
2022/04/25 04:40:30;;;;;;;15.15;5.45;;;;;;;14.95;59.95;93938.38;4158762;28;20060;-54
2022/04/25 04:42:31;;;;;;;17.13;5.50;;;;;;;15.03;59.68;93943.41;4159188;28;20061;-53
2022/04/25 04:44:33;;;;;;;19.35;5.78;;;;;;;15.08;59.84;93946.25;4158882;28;20109;-55
2022/04/25 04:46:35;;;;;;;18.27;5.95;;;;;;;15.22;59.23;93959.41;4159172;28;20056;-53
2022/04/25 04:48:37;;;;;;;20.45;6.65;;;;;;;15.25;59.43;93946.63;4145511;28;20054;-56
2022/04/25 04:50:39;;;;;;;15.73;5.15;;;;;;;15.30;58.93;93948.66;4143182;28;20057;-55
2022/04/25 04:52:45;;;;;;;22.48;6.82;;;;;;;15.24;58.67;93949.47;4142922;28;20510;-53
2022/04/25 04:54:47;;;;;;;20.63;5.30;;;;;;;15.10;59.17;93951.31;4157064;28;20076;-56
2022/04/25 04:56:49;;;;;;;24.23;5.57;;;;;;;15.19;58.80;93963.28;4158816;28;20107;-55
2022/04/25 04:58:51;;;;;;;18.83;6.47;;;;;;;15.29;58.46;93955.75;4158824;28;20060;-54
2022/04/25 05:00:53;;;;;;;17.25;5.57;;;;;;;15.31;58.46;93960.81;4159072;28;20445;-57
2022/04/25 05:02:54;;;;;;;19.27;6.07;;;;;;;15.33;58.58;93958.78;4156939;28;20533;-51
2022/04/25 05:04:56;;;;;;;17.92;5.53;;;;;;;14.66;60.09;93964.09;4158802;28;20647;-51
2022/04/25 05:06:58;;;;;;;18.60;4.97;;;;;;;14.07;62.17;93972.69;4158427;28;20356;-49
2022/04/25 05:09:00;;;;;;;20.02;5.68;;;;;;;14.10;62.67;93981.00;4157050;28;20390;-54
2022/04/25 05:11:02;;;;;;;19.10;6.10;;;;;;;14.39;61.76;93976.44;4158624;28;20560;-51
2022/04/25 05:13:04;;;;;;;24.98;6.35;;;;;;;14.32;62.42;93979.03;4158725;28;20083;-56
2022/04/25 05:15:06;;;;;;;26.35;7.35;;;;;;;14.51;61.66;93989.81;4158835;28;20265;-52
2022/04/25 05:17:08;;;;;;;19.63;6.97;;;;;;;14.58;61.48;93988.03;4158586;28;20053;-56
2022/04/25 05:19:10;;;;;;;25.13;6.30;;;;;;;14.66;61.30;93990.47;4158205;28;20099;-54
2022/04/25 05:21:13;;;;;;;26.40;8.77;;;;;;;14.81;60.60;93985.00;4158510;28;20749;-55
2022/04/25 05:23:15;;;;;;;23.70;7.68;;;;;;;14.99;60.23;93984.38;4156415;28;20482;-55
2022/04/25 05:25:25;;;;;;;27.23;6.85;;;;;;;14.62;59.63;93988.44;4158686;28;20057;-54
2022/04/25 05:27:27;;;;;;;17.42;7.30;;;;;;;14.12;61.58;93988.72;4158699;28;20057;-53
2022/04/25 05:29:29;;;;;;;18.50;6.90;;;;;;;14.09;62.23;93991.75;4158707;28;20140;-54
2022/04/25 05:31:31;;;;;;;15.90;5.93;;;;;;;14.26;61.30;93994.81;4157405;28;20049;-52
2022/04/25 05:33:32;;;;;;;17.90;5.80;;;;;;;14.31;60.84;93990.59;4157395;28;20088;-53
2022/04/25 05:35:35;;;;;;;20.33;6.40;;;;;;;14.58;60.71;93990.66;4158746;28;20165;-54
2022/04/25 05:37:38;;;;;;;14.73;6.07;;;;;;;14.80;59.46;93991.31;4158490;28;20627;-54
2022/04/25 05:39:39;;;;;;;14.38;4.85;;;;;;;14.79;59.13;93991.50;4157605;28;20154;-52
2022/04/25 05:41:42;;;;;;;14.77;5.13;;;;;;;14.91;59.15;93993.34;4158913;28;20505;-52
2022/04/25 05:43:45;;;;;;;18.65;5.20;;;;;;;15.02;58.67;93989.28;4158398;28;20053;-52
2022/04/25 05:45:47;;;;;;;21.95;5.65;;;;;;;15.17;58.42;93993.53;4158796;28;20046;-55
2022/04/25 05:47:50;;;;;;;22.25;5.82;;;;;;;15.17;58.51;93990.91;4151616;28;20107;-58
2022/04/25 05:52:13;;;;;;;20.65;5.03;;;;;;;15.00;58.73;93998.41;4142280;28;20141;-56
2022/04/25 05:54:21;;;;;;;17.52;5.28;;;;;;;15.01;59.22;93992.91;4152220;28;20080;-53
2022/04/25 05:56:23;;;;;;;23.58;5.30;;;;;;;15.22;57.98;94001.63;4158693;28;20050;-54
2022/04/25 05:58:24;;;;;;;17.33;4.88;;;;;;;15.38;57.64;93998.59;4158706;28;20049;-57
2022/04/25 06:00:26;;;;;;;22.83;5.00;;;;;;;15.41;57.02;94005.28;4159717;28;20050;-54
2022/04/25 06:02:28;;;;;;;20.80;5.40;;;;;;;15.52;56.91;93996.72;4161230;28;20111;-52
2022/04/25 06:04:30;;;;;;;27.70;5.75;;;;;;;15.56;56.53;93998.72;4160874;28;20092;-49
2022/04/25 06:06:32;;;;;;;16.48;4.68;;;;;;;15.80;56.38;93995.66;4161012;28;20061;-53
2022/04/25 06:08:33;;;;;;;25.27;5.32;;;;;;;16.05;55.81;93990.50;4160143;28;20053;-55
2022/04/25 06:10:35;;;;;;;19.58;4.75;;;;;;;16.30;55.24;93987.91;4161631;28;20127;-57
2022/04/25 06:12:44;;;;;;;25.83;4.82;;;;;;;16.54;54.57;93973.97;4161414;28;20131;-54
2022/04/25 06:14:48;;;;;;;21.25;5.57;;;;;;;16.75;53.77;93978.06;4161613;28;20408;-56
2022/04/25 06:16:49;;;;;;;21.60;5.43;;;;;;;16.99;53.40;93971.22;4161064;28;20041;-55
2022/04/25 06:18:51;;;;;;;23.35;4.68;;;;;;;17.17;52.69;93969.66;4160874;28;20118;-49
2022/04/25 06:20:53;;;;;;;24.95;5.20;;;;;;;17.29;52.43;93967.09;4156211;28;20116;-56
2022/04/25 06:22:59;;;;;;;13.35;3.92;;;;;;;17.37;51.79;93964.16;4143131;28;20057;-53
2022/04/25 06:25:01;;;;;;;18.27;4.18;;;;;;;17.52;51.52;93958.50;4144922;28;20572;-54
2022/04/25 06:27:05;;;;;;;22.33;5.78;;;;;;;17.58;51.28;93968.22;4144450;28;20561;-54
2022/04/25 06:29:07;;;;;;;16.58;5.70;;;;;;;17.64;51.42;93959.41;4154074;28;20057;-53
2022/04/25 06:31:09;;;;;;;18.83;5.03;;;;;;;17.72;51.20;93963.59;4160919;28;20053;-55
2022/04/25 06:33:12;;;;;;;20.05;5.10;;;;;;;17.38;51.57;93971.09;4161301;28;20501;-53
2022/04/25 06:35:14;;;;;;;21.25;6.10;;;;;;;17.10;52.52;93977.66;4158957;28;20091;-53
2022/04/25 06:37:15;;;;;;;22.80;5.30;;;;;;;17.18;52.64;93972.06;4160328;28;20096;-54
2022/04/25 06:39:17;;;;;;;20.20;5.57;;;;;;;17.08;52.95;93970.94;4159296;28;20057;-55
2022/04/25 06:41:21;;;;;;;24.48;5.07;;;;;;;17.02;52.43;93972.63;4161108;28;20057;-54
2022/04/25 06:43:22;;;;;;;;;;;;;;;16.92;52.21;93978.38;4161005;28;20519;-56
2022/04/25 06:45:24;;;;;;;22.27;4.93;;;;;;;16.81;52.56;93971.16;4160573;28;19948;-55
2022/04/25 06:47:26;;;;;;;26.38;4.63;;;;;;;16.82;53.00;93975.44;4157183;28;20049;-55
2022/04/25 06:49:28;;;;;;;16.52;4.50;;;;;;;16.90;52.81;93971.69;4149468;28;20111;-55
2022/04/25 06:51:30;;;;;;;21.98;4.70;;;;;;;17.03;52.48;93974.22;4153029;28;20514;-52
2022/04/25 06:53:32;;;;;;;20.77;4.95;;;;;;;17.26;51.93;93964.88;4159102;28;20264;-55
2022/04/25 06:55:34;;;;;;;24.27;5.10;;;;;;;17.29;51.66;93964.44;4160707;28;20127;-54
2022/04/25 06:57:36;;;;;;;23.20;4.93;;;;;;;17.35;51.86;93966.22;4160376;28;20065;-52
2022/04/25 06:59:38;;;;;;;17.50;4.22;;;;;;;17.59;51.27;93961.88;4160179;28;20057;-50
2022/04/25 07:01:40;;;;;;;22.67;4.93;;;;;;;17.68;50.57;93965.06;4160584;28;20522;-52
2022/04/25 07:03:42;;;;;;;18.45;4.10;;;;;;;17.86;50.31;93973.03;4157479;28;20053;-53
2022/04/25 07:05:44;;;;;;;19.98;4.88;;;;;;;17.97;50.05;93969.66;4150784;28;20191;-54
2022/04/25 07:07:46;;;;;;;20.30;4.28;;;;;;;17.89;49.94;93963.84;4159635;28;20103;-56
2022/04/25 07:09:47;;;;;;;15.98;4.95;;;;;;;17.96;49.76;93973.34;4159517;28;20049;-53
2022/04/25 07:11:49;;;;;;;15.55;3.70;;;;;;;17.84;50.02;93967.16;4160398;28;20045;-53
2022/04/25 07:13:51;;;;;;;19.48;4.22;;;;;;;17.90;49.89;93960.97;4159880;28;20534;-55
2022/04/25 07:15:53;;;;;;;17.02;4.70;;;;;;;18.13;49.50;93959.47;4159907;28;20041;-52
2022/04/25 07:17:56;;;;;;;12.35;4.80;;;;;;;18.39;48.94;93964.44;4159781;28;20148;-55
2022/04/25 07:19:58;;;;;;;16.40;4.35;;;;;;;18.65;48.56;93961.59;4159623;28;20061;-55
2022/04/25 07:29:13;;;;;;;19.02;4.15;;;;;;;19.15;46.74;93948.00;4159482;28;20053;-53
2022/04/25 07:31:16;;;;;;;18.73;4.28;;;;;;;19.33;46.69;93949.72;4159567;28;20053;-54
2022/04/25 07:33:18;;;;;;;19.33;4.32;;;;;;;19.53;46.21;93944.03;4156476;28;20041;-54
2022/04/25 07:35:21;;;;;;;16.15;3.65;;;;;;;19.73;45.32;93949.03;4160761;28;20438;-55
2022/04/25 07:37:24;;;;;;;17.02;3.20;;;;;;;19.81;44.06;93946.81;4159986;28;20071;-51
2022/04/25 07:39:25;;;;;;;15.80;3.92;;;;;;;19.81;42.33;93952.13;4158055;28;20493;-56
2022/04/25 07:41:27;;;;;;;29.70;3.80;;;;;;;19.95;41.40;93939.38;4159746;28;20063;-54
2022/04/25 07:43:29;;;;;;;18.95;3.38;;;;;;;20.10;40.29;93940.72;4159644;28;20053;-56
2022/04/25 07:45:31;;;;;;;31.30;6.32;;;;;;;19.90;38.11;93941.16;4159523;28;20060;-54
2022/04/25 07:47:34;;;;;;;24.00;5.38;;;;;;;20.12;38.23;93943.97;4159490;28;20551;-58
2022/04/25 07:49:36;;;;;;;20.67;3.80;;;;;;;20.00;37.40;93939.50;4159208;28;20053;-56
2022/04/25 07:51:42;;;;;;;22.38;5.15;;;;;;;20.18;38.35;93943.03;4159712;28;20168;-57
2022/04/25 07:53:45;;;;;;;28.75;4.47;;;;;;;20.38;38.98;93938.06;4158347;28;20470;-54
2022/04/25 07:55:47;;;;;;;19.83;3.78;;;;;;;20.60;39.06;93927.56;4159556;28;20119;-58
2022/04/25 07:57:48;;;;;;;23.90;4.07;;;;;;;20.75;38.40;93931.56;4159542;28;20049;-55
2022/04/25 07:59:50;;;;;;;22.92;3.95;;;;;;;20.60;35.38;93916.13;4159542;28;20061;-57
2022/04/25 08:01:52;;;;;;;22.08;3.25;;;;;;;20.35;35.80;93935.91;4159530;28;20049;-55
2022/04/25 08:03:55;;;;;;;16.80;3.95;;;;;;;20.45;34.95;93928.09;4158704;28;20049;-53
2022/04/25 08:05:57;;;;;;;22.25;3.60;;;;;;;20.51;34.03;93922.88;4159304;28;20291;-54
2022/04/25 08:07:59;;;;;;;19.48;3.83;;;;;;;20.53;34.13;93931.41;4156533;28;20053;-54
2022/04/25 08:10:01;;;;;;;14.95;5.03;;;;;;;20.56;34.12;93917.63;4159493;28;20068;-53
2022/04/25 08:19:20;;;;;;;22.63;3.83;;;;;;;20.82;32.95;93918.88;4158765;28;20502;-54
2022/04/25 08:21:23;;;;;;;25.40;3.65;;;;;;;20.92;33.22;93912.94;4158851;28;20137;-57
2022/04/25 08:23:26;;;;;;;14.48;3.00;;;;;;;21.00;33.07;93910.66;4157665;28;20108;-54
2022/04/25 08:25:30;;;;;;;12.60;2.53;;;;;;;21.09;32.93;93913.72;4158013;28;20056;-54
2022/04/25 08:27:32;;;;;;;17.95;3.35;;;;;;;21.20;32.88;93901.38;4159330;28;20107;-54
2022/04/25 08:29:34;;;;;;;26.67;3.80;;;;;;;21.24;32.18;93913.94;4158996;28;20410;-57
2022/04/25 08:31:36;;;;;;;17.35;4.07;;;;;;;21.33;32.41;93909.00;4159185;28;20053;-54
2022/04/25 08:33:38;;;;;;;19.43;4.10;;;;;;;21.35;32.47;93911.44;4160198;28;20049;-53
2022/04/25 08:35:40;;;;;;;29.20;2.88;;;;;;;21.39;32.33;93907.25;4155936;28;20336;-52
2022/04/25 08:37:42;;;;;;;18.17;3.35;;;;;;;21.43;32.11;93903.88;4142591;28;20168;-56
2022/04/25 08:39:44;;;;;;;25.45;3.15;;;;;;;21.57;32.24;93900.84;4141264;28;20050;-53
2022/04/25 08:41:48;;;;;;;16.48;4.15;;;;;;;21.55;32.03;93911.72;4142901;28;20061;-52
2022/04/25 08:43:53;;;;;;;23.63;4.93;;;;;;;21.52;32.13;93908.78;4141468;28;20137;-51
2022/04/25 08:45:55;;;;;;;15.68;2.55;;;;;;;21.61;32.31;93910.75;4142645;28;20133;-53
2022/04/25 08:47:58;;;;;;;19.77;3.03;;;;;;;21.60;31.86;93911.81;4148440;28;20049;-54
2022/04/25 08:50:00;;;;;;;19.10;4.35;;;;;;;21.67;30.96;93911.63;4159039;28;20288;-55
2022/04/25 08:52:04;;;;;;;31.00;7.32;;;;;;;21.86;31.11;93906.81;4159110;28;20122;-55
2022/04/25 08:54:08;;;;;;;19.85;4.63;;;;;;;21.82;30.93;93903.03;4156376;28;20049;-54
2022/04/25 08:56:30;;;;;;;;;;;;;;;21.83;31.70;93904.63;4160208;28;20076;-55
2022/04/25 08:58:31;;;;;;;14.23;2.55;;;;;;;21.83;30.69;93910.78;4159096;28;19925;-57
2022/04/25 09:00:33;;;;;;;13.93;2.92;;;;;;;21.80;30.51;93910.47;4159136;28;20054;-54
2022/04/25 09:02:36;;;;;;;22.95;5.95;;;;;;;21.88;30.18;93910.03;4158931;28;20111;-58
2022/04/25 09:04:39;;;;;;;17.13;3.00;;;;;;;21.89;30.67;93906.31;4158627;28;20053;-56
2022/04/25 09:06:41;;;;;;;20.00;2.67;;;;;;;22.02;31.01;93900.59;4157759;28;20108;-53
2022/04/25 09:08:49;;;;;;;22.65;4.07;;;;;;;22.07;30.96;93897.19;4156054;28;20526;-55
2022/04/25 09:12:09;;;;;;;21.77;2.83;;;;;;;22.00;30.55;93901.91;4158796;28;20057;-55
2022/04/25 09:13:13;;;;;;;23.05;3.08;;;;;;;21.85;31.25;93907.84;4158478;28;20652;-54
2022/04/25 09:15:20;;;;;;;21.10;3.22;;;;;;;21.99;30.52;93890.44;4158508;28;20418;-54
2022/04/25 09:17:25;;;;;;;17.73;2.90;;;;;;;22.23;29.62;93885.66;4158645;28;20120;-55
2022/04/25 09:19:27;;;;;;;16.05;2.72;;;;;;;22.28;29.46;93896.38;4158222;28;20402;-55
2022/04/25 09:21:30;;;;;;;18.83;2.55;;;;;;;22.37;29.39;93893.25;4158692;28;20472;-56
2022/04/25 09:23:32;;;;;;;16.45;3.10;;;;;;;22.33;28.26;93892.97;4157228;28;20057;-54
2022/04/25 09:25:34;;;;;;;14.35;2.55;;;;;;;22.29;29.03;93889.19;4158366;28;20382;-56
2022/04/25 09:27:44;;;;;;;17.17;2.72;;;;;;;22.29;29.07;93889.97;4158532;28;20360;-55
2022/04/25 09:29:48;;;;;;;17.75;3.33;;;;;;;22.53;28.96;93895.00;4158222;28;20139;-56
2022/04/25 09:31:50;;;;;;;14.38;3.28;;;;;;;22.63;28.15;93883.63;4158422;28;20088;-54
2022/04/25 09:33:51;;;;;;;14.77;2.83;;;;;;;22.81;27.31;93880.56;4158455;28;20140;-54
2022/04/25 09:35:55;;;;;;;19.23;2.70;;;;;;;22.90;26.33;93888.91;4158940;28;20475;-53
2022/04/25 09:37:57;;;;;;;;;;;;;;;22.81;27.99;93871.75;4160012;28;20049;-54
2022/04/25 09:40:02;;;;;;;22.63;2.83;;;;;;;22.87;26.53;93874.22;4161607;28;19975;-52
2022/04/25 09:42:04;;;;;;;14.05;2.72;;;;;;;23.01;26.05;93879.16;4161541;28;20057;-53
2022/04/25 09:44:06;;;;;;;17.85;2.30;;;;;;;22.94;26.88;93878.53;4161382;28;20057;-53
2022/04/25 09:46:10;;;;;;;37.20;3.80;;;;;;;22.98;25.68;93874.28;4161456;28;20399;-54
2022/04/25 09:48:16;;;;;;;19.77;2.20;;;;;;;22.76;25.26;93875.19;4160887;28;20053;-56
2022/04/25 09:50:18;;;;;;;10.35;1.98;;;;;;;22.67;24.83;93863.34;4161447;28;20084;-56
2022/04/25 09:53:02;;;;;;;13.82;2.28;;;;;;;22.62;25.48;93887.34;4161608;28;20054;-57
2022/04/25 09:55:17;;;;;;;;;;;;;;;22.81;25.94;93874.44;4145784;28;20065;-56
2022/04/25 09:57:29;;;;;;;;;;;;;;;22.96;25.88;93877.22;4146323;28;20358;-57